createdAt,value
2019-05-17T00:00:24.382Z,0.00
2019-05-17T00:01:26.881Z,0.00
2019-05-17T00:02:26.416Z,0.00
2019-05-17T00:03:24.329Z,0.00
2019-05-17T00:04:24.321Z,0.00
2019-05-17T00:05:26.358Z,0.00
2019-05-17T00:06:24.314Z,0.00
2019-05-17T00:07:24.297Z,0.00
2019-05-17T00:08:31.956Z,0.00
2019-05-17T00:09:26.755Z,0.00
2019-05-17T00:10:26.375Z,0.00
2019-05-17T00:11:24.241Z,0.00
2019-05-17T00:12:24.247Z,0.00
2019-05-17T00:13:26.714Z,0.00
2019-05-17T00:14:24.209Z,0.00
2019-05-17T00:15:24.198Z,0.00
2019-05-17T00:16:24.185Z,0.00
2019-05-17T00:17:26.608Z,0.00
2019-05-17T00:18:26.327Z,0.00
2019-05-17T00:19:26.181Z,0.00
2019-05-17T00:20:26.466Z,0.00
2019-05-17T00:21:24.139Z,0.00
2019-05-17T00:22:24.119Z,0.00
2019-05-17T00:23:24.119Z,0.00
2019-05-17T00:24:26.360Z,0.00
2019-05-17T00:25:24.089Z,0.00
2019-05-17T00:26:24.075Z,0.00
2019-05-17T00:27:26.363Z,0.00
2019-05-17T00:28:24.056Z,0.00
2019-05-17T00:29:26.322Z,0.00
2019-05-17T00:30:26.383Z,0.00
2019-05-17T00:31:26.173Z,0.00
2019-05-17T00:32:24.012Z,0.00
2019-05-17T00:33:24.001Z,0.00
2019-05-17T00:34:23.989Z,0.00
2019-05-17T00:35:23.978Z,0.00
2019-05-17T00:36:23.987Z,0.00
2019-05-17T00:37:26.322Z,0.00
2019-05-17T00:38:23.950Z,0.00
2019-05-17T00:39:23.943Z,0.00
2019-05-17T00:40:23.926Z,0.00
2019-05-17T00:41:23.912Z,0.00
2019-05-17T00:42:26.276Z,0.00
2019-05-17T00:43:26.117Z,0.00
2019-05-17T00:44:23.879Z,0.00
2019-05-17T00:45:23.871Z,0.00
2019-05-17T00:46:23.861Z,0.00
2019-05-17T00:47:23.857Z,0.00
2019-05-17T00:48:23.864Z,0.00
2019-05-17T00:49:23.830Z,0.00
2019-05-17T00:50:23.815Z,0.00
2019-05-17T00:51:23.808Z,0.00
2019-05-17T00:52:23.797Z,0.00
2019-05-17T00:53:23.787Z,0.00
2019-05-17T00:54:23.793Z,0.00
2019-05-17T00:55:23.774Z,0.00
2019-05-17T00:56:23.766Z,0.00
2019-05-17T00:57:23.740Z,0.00
2019-05-17T00:58:23.728Z,0.00
2019-05-17T00:59:23.725Z,0.00
2019-05-17T01:00:23.730Z,0.00
2019-05-17T01:01:23.709Z,0.00
2019-05-17T01:02:23.699Z,0.00
2019-05-17T01:03:23.679Z,0.00
2019-05-17T01:04:23.664Z,0.00
2019-05-17T01:05:23.654Z,0.00
2019-05-17T01:06:23.664Z,0.00
2019-05-17T01:07:23.632Z,0.00
2019-05-17T01:08:23.639Z,0.00
2019-05-17T01:09:23.614Z,0.00
2019-05-17T01:10:23.598Z,0.00
2019-05-17T01:11:23.587Z,0.00
2019-05-17T01:12:23.593Z,0.00
2019-05-17T01:13:23.564Z,0.00
2019-05-17T01:14:23.561Z,0.00
2019-05-17T01:15:23.543Z,0.00
2019-05-17T01:16:23.535Z,0.00
2019-05-17T01:17:23.526Z,0.00
2019-05-17T01:18:23.528Z,0.00
2019-05-17T01:19:23.501Z,0.00
2019-05-17T01:20:23.510Z,0.00
2019-05-17T01:21:23.476Z,0.00
2019-05-17T01:22:23.468Z,0.00
2019-05-17T01:23:23.454Z,0.00
2019-05-17T01:24:23.466Z,0.00
2019-05-17T01:25:23.451Z,0.00
2019-05-17T01:26:23.424Z,0.00
2019-05-17T01:27:23.412Z,0.00
2019-05-17T01:28:23.399Z,0.00
2019-05-17T01:29:23.392Z,0.00
2019-05-17T01:30:23.402Z,0.00
2019-05-17T01:31:23.367Z,0.00
2019-05-17T01:32:23.359Z,0.00
2019-05-17T01:33:23.371Z,0.00
2019-05-17T01:34:23.342Z,0.00
2019-05-17T01:35:23.326Z,0.00
2019-05-17T01:36:23.342Z,0.00
2019-05-17T01:37:23.304Z,0.00
2019-05-17T01:38:23.315Z,0.00
2019-05-17T01:39:23.283Z,0.00
2019-05-17T01:40:23.275Z,0.00
2019-05-17T01:41:23.263Z,0.00
2019-05-17T01:42:23.275Z,0.00
2019-05-17T01:43:23.241Z,0.00
2019-05-17T01:44:23.255Z,0.00
2019-05-17T01:45:23.217Z,0.00
2019-05-17T01:46:23.209Z,0.00
2019-05-17T01:47:23.200Z,0.00
2019-05-17T01:48:23.208Z,0.00
2019-05-17T01:49:23.182Z,0.00
2019-05-17T01:50:23.166Z,0.00
2019-05-17T01:51:23.156Z,0.00
2019-05-17T01:52:23.149Z,0.00
2019-05-17T01:53:23.133Z,0.00
2019-05-17T01:54:23.141Z,0.00
2019-05-17T01:55:23.109Z,0.00
2019-05-17T01:56:23.102Z,0.00
2019-05-17T01:57:23.093Z,0.00
2019-05-17T01:58:23.079Z,0.00
2019-05-17T01:59:23.069Z,0.00
2019-05-17T02:00:23.077Z,0.00
2019-05-17T02:01:23.058Z,0.00
2019-05-17T02:02:23.038Z,0.00
2019-05-17T02:03:23.024Z,0.00
2019-05-17T02:04:23.018Z,0.00
2019-05-17T02:05:23.003Z,0.00
2019-05-17T02:06:23.009Z,0.00
2019-05-17T02:07:22.993Z,0.00
2019-05-17T02:08:22.978Z,0.00
2019-05-17T02:09:34.852Z,0.00
2019-05-17T02:10:23.948Z,0.00
2019-05-17T02:11:22.945Z,0.00
2019-05-17T02:12:22.948Z,0.00
2019-05-17T02:13:22.917Z,0.00
2019-05-17T02:14:22.906Z,0.00
2019-05-17T02:15:22.909Z,0.00
2019-05-17T02:16:22.896Z,0.00
2019-05-17T02:17:22.880Z,0.00
2019-05-17T02:18:22.888Z,0.00
2019-05-17T02:19:22.852Z,0.00
2019-05-17T02:20:22.845Z,0.00
2019-05-17T02:21:22.830Z,0.00
2019-05-17T02:22:22.830Z,0.00
2019-05-17T02:23:22.810Z,0.00
2019-05-17T02:24:22.820Z,0.00
2019-05-17T02:25:22.788Z,0.00
2019-05-17T02:26:22.783Z,0.00
2019-05-17T02:27:25.349Z,0.00
2019-05-17T02:28:23.757Z,0.00
2019-05-17T02:29:22.745Z,0.00
2019-05-17T02:30:23.511Z,0.00
2019-05-17T02:31:24.755Z,0.00
2019-05-17T02:32:23.457Z,0.00
2019-05-17T02:33:23.583Z,0.00
2019-05-17T02:34:23.349Z,0.00
2019-05-17T02:35:23.260Z,0.00
2019-05-17T02:36:23.016Z,0.00
2019-05-17T02:37:23.237Z,0.00
2019-05-17T02:38:22.673Z,0.00
2019-05-17T02:39:23.314Z,0.00
2019-05-17T02:40:22.823Z,0.00
2019-05-17T02:41:22.820Z,0.00
2019-05-17T02:42:22.630Z,0.00
2019-05-17T02:43:23.561Z,0.00
2019-05-17T02:44:23.522Z,0.00
2019-05-17T02:45:23.401Z,0.00
2019-05-17T02:46:23.167Z,0.00
2019-05-17T02:47:23.144Z,0.00
2019-05-17T02:48:23.389Z,0.00
2019-05-17T02:49:23.575Z,0.00
2019-05-17T02:50:23.324Z,0.00
2019-05-17T02:51:23.704Z,0.00
2019-05-17T02:52:23.108Z,0.00
2019-05-17T02:53:23.140Z,0.00
2019-05-17T02:54:23.527Z,0.00
2019-05-17T02:55:23.260Z,0.00
2019-05-17T02:56:23.213Z,0.00
2019-05-17T02:57:23.319Z,0.00
2019-05-17T02:58:23.278Z,0.00
2019-05-17T02:59:23.227Z,0.00
2019-05-17T03:00:23.871Z,0.00
2019-05-17T03:01:23.140Z,4.00
2019-05-17T03:02:27.546Z,4.00
2019-05-17T03:03:23.851Z,4.00
2019-05-17T03:04:23.583Z,4.00
2019-05-17T03:05:23.247Z,0.00
2019-05-17T03:06:22.865Z,4.00
2019-05-17T03:07:23.172Z,4.00
2019-05-17T03:08:23.534Z,4.00
2019-05-17T03:09:22.995Z,8.00
2019-05-17T03:10:28.479Z,4.00
2019-05-17T03:11:23.313Z,4.00
2019-05-17T03:12:23.674Z,8.00
2019-05-17T03:13:23.472Z,8.00
2019-05-17T03:14:22.926Z,12.00
2019-05-17T03:15:23.446Z,12.00
2019-05-17T03:16:23.670Z,12.00
2019-05-17T03:17:22.916Z,12.00
2019-05-17T03:18:23.058Z,16.00
2019-05-17T03:19:23.520Z,20.00
2019-05-17T03:20:23.229Z,20.00
2019-05-17T03:21:22.929Z,20.00
2019-05-17T03:22:23.176Z,24.00
2019-05-17T03:23:23.372Z,28.00
2019-05-17T03:24:22.726Z,28.00
2019-05-17T03:25:23.895Z,36.00
2019-05-17T03:26:23.066Z,36.00
2019-05-17T03:27:23.281Z,40.00
2019-05-17T03:28:23.535Z,44.00
2019-05-17T03:29:22.894Z,48.00
2019-05-17T03:30:25.788Z,52.00
2019-05-17T03:31:26.195Z,60.00
2019-05-17T03:32:26.668Z,60.00
2019-05-17T03:33:26.454Z,64.00
2019-05-17T03:34:26.663Z,76.00
2019-05-17T03:35:26.642Z,80.00
2019-05-17T03:36:26.196Z,88.00
2019-05-17T03:37:30.251Z,96.00
2019-05-17T03:38:22.988Z,104.00
2019-05-17T03:39:22.669Z,108.00
2019-05-17T03:40:46.965Z,120.00
2019-05-17T03:41:24.848Z,120.00
2019-05-17T03:42:22.948Z,124.00
2019-05-17T03:43:22.586Z,136.00
2019-05-17T03:44:22.543Z,140.00
2019-05-17T03:45:22.854Z,148.00
2019-05-17T03:46:23.181Z,160.00
2019-05-17T03:47:22.686Z,168.00
2019-05-17T03:48:22.253Z,176.00
2019-05-17T03:49:22.430Z,188.00
2019-05-17T03:50:22.676Z,200.00
2019-05-17T03:51:23.358Z,216.00
2019-05-17T03:52:22.431Z,224.00
2019-05-17T03:53:22.819Z,228.00
2019-05-17T03:54:22.615Z,228.00
2019-05-17T03:55:23.484Z,232.00
2019-05-17T03:56:22.450Z,228.00
2019-05-17T03:57:23.910Z,232.00
2019-05-17T03:58:23.523Z,240.00
2019-05-17T03:59:24.200Z,256.00
2019-05-17T04:00:23.265Z,284.00
2019-05-17T04:01:23.159Z,336.00
2019-05-17T04:02:23.100Z,364.00
2019-05-17T04:03:22.851Z,392.00
2019-05-17T04:04:22.880Z,412.00
2019-05-17T04:05:22.700Z,424.00
2019-05-17T04:06:23.897Z,436.00
2019-05-17T04:07:23.566Z,472.00
2019-05-17T04:08:23.010Z,500.00
2019-05-17T04:09:22.354Z,536.00
2019-05-17T04:10:22.877Z,588.00
2019-05-17T04:11:31.099Z,620.00
2019-05-17T04:12:23.302Z,652.00
2019-05-17T04:13:23.399Z,668.00
2019-05-17T04:14:22.553Z,696.00
2019-05-17T04:15:23.926Z,756.00
2019-05-17T04:16:23.777Z,772.00
2019-05-17T04:17:22.773Z,784.00
2019-05-17T04:18:23.517Z,780.00
2019-05-17T04:19:22.962Z,796.00
2019-05-17T04:20:22.357Z,820.00
2019-05-17T04:21:23.481Z,872.00
2019-05-17T04:22:23.914Z,900.00
2019-05-17T04:23:23.205Z,928.00
2019-05-17T04:24:23.047Z,964.00
2019-05-17T04:25:23.417Z,996.00
2019-05-17T04:26:22.955Z,1024.00
2019-05-17T04:27:22.903Z,1040.00
2019-05-17T04:28:22.927Z,1048.00
2019-05-17T04:29:22.658Z,1076.00
2019-05-17T04:30:23.386Z,1116.00
2019-05-17T04:31:22.745Z,1124.00
2019-05-17T04:32:23.304Z,1140.00
2019-05-17T04:33:23.301Z,1160.00
2019-05-17T04:34:22.449Z,1172.00
2019-05-17T04:35:23.294Z,1180.00
2019-05-17T04:36:22.447Z,1196.00
2019-05-17T04:37:22.823Z,1248.00
2019-05-17T04:38:23.606Z,1268.00
2019-05-17T04:39:22.644Z,1268.00
2019-05-17T04:40:23.169Z,1328.00
2019-05-17T04:41:39.418Z,1388.00
2019-05-17T04:42:22.808Z,1436.00
2019-05-17T04:43:23.046Z,1468.00
2019-05-17T04:44:23.145Z,1536.00
2019-05-17T04:45:23.036Z,1612.00
2019-05-17T04:46:23.623Z,1684.00
2019-05-17T04:47:22.994Z,1780.00
2019-05-17T04:48:23.280Z,1856.00
2019-05-17T04:49:24.273Z,1900.00
2019-05-17T04:50:23.122Z,1864.00
2019-05-17T04:51:23.231Z,1844.00
2019-05-17T04:52:22.738Z,1816.00
2019-05-17T04:53:23.367Z,1780.00
2019-05-17T04:54:22.707Z,1784.00
2019-05-17T04:55:23.062Z,1808.00
2019-05-17T04:56:22.770Z,1884.00
2019-05-17T04:57:23.150Z,1948.00
2019-05-17T04:58:23.257Z,1988.00
2019-05-17T04:59:24.012Z,2088.00
2019-05-17T05:00:21.952Z,2164.00
2019-05-17T05:01:23.537Z,2248.00
2019-05-17T05:02:23.584Z,2288.00
2019-05-17T05:03:23.039Z,2320.00
2019-05-17T05:04:22.582Z,2296.00
2019-05-17T05:05:22.767Z,2364.00
2019-05-17T05:06:23.290Z,2404.00
2019-05-17T05:07:22.633Z,2356.00
2019-05-17T05:08:22.430Z,2380.00
2019-05-17T05:09:23.120Z,2372.00
2019-05-17T05:10:22.509Z,2372.00
2019-05-17T05:11:23.378Z,2376.00
2019-05-17T05:12:22.846Z,2428.00
2019-05-17T05:13:22.700Z,2440.00
2019-05-17T05:14:23.313Z,2416.00
2019-05-17T05:15:22.567Z,2468.00
2019-05-17T05:16:22.542Z,2528.00
2019-05-17T05:17:22.190Z,2572.00
2019-05-17T05:18:22.159Z,2636.00
2019-05-17T05:19:22.350Z,2696.00
2019-05-17T05:20:22.106Z,2756.00
2019-05-17T05:21:23.038Z,2828.00
2019-05-17T05:22:22.470Z,2904.00
2019-05-17T05:23:23.770Z,2984.00
2019-05-17T05:24:22.244Z,3076.00
2019-05-17T05:25:21.645Z,3156.00
2019-05-17T05:26:22.279Z,3232.00
2019-05-17T05:27:22.252Z,3324.00
2019-05-17T05:28:22.537Z,3424.00
2019-05-17T05:29:21.672Z,3528.00
2019-05-17T05:30:22.548Z,3604.00
2019-05-17T05:31:22.785Z,3676.00
2019-05-17T05:32:22.056Z,3748.00
2019-05-17T05:33:22.178Z,3792.00
2019-05-17T05:34:21.617Z,3812.00
2019-05-17T05:35:22.433Z,3800.00
2019-05-17T05:36:22.097Z,3784.00
2019-05-17T05:37:23.133Z,3816.00
2019-05-17T05:38:21.648Z,3856.00
2019-05-17T05:39:22.708Z,3900.00
2019-05-17T05:40:21.390Z,4052.00
2019-05-17T05:41:22.554Z,4292.00
2019-05-17T05:42:22.103Z,4516.00
2019-05-17T05:43:22.645Z,4724.00
2019-05-17T05:44:21.536Z,4892.00
2019-05-17T05:45:22.506Z,4984.00
2019-05-17T05:46:22.376Z,5008.00
2019-05-17T05:47:22.175Z,5040.00
2019-05-17T05:48:21.754Z,5116.00
2019-05-17T05:49:21.694Z,5168.00
2019-05-17T05:50:21.806Z,5220.00
2019-05-17T05:51:21.641Z,5356.00
2019-05-17T05:52:21.843Z,5480.00
2019-05-17T05:53:21.824Z,5612.00
2019-05-17T05:54:22.480Z,5760.00
2019-05-17T05:55:23.181Z,5856.00
2019-05-17T05:56:22.029Z,5788.00
2019-05-17T05:57:21.895Z,5572.00
2019-05-17T05:58:23.573Z,5444.00
2019-05-17T05:59:22.478Z,5428.00
2019-05-17T06:00:22.131Z,5504.00
2019-05-17T06:01:21.942Z,5588.00
2019-05-17T06:02:21.740Z,5588.00
2019-05-17T06:03:22.442Z,5556.00
2019-05-17T06:04:22.302Z,5540.00
2019-05-17T06:05:21.908Z,5612.00
2019-05-17T06:06:21.547Z,5568.00
2019-05-17T06:07:21.639Z,5488.00
2019-05-17T06:08:22.524Z,5596.00
2019-05-17T06:09:22.293Z,5752.00
2019-05-17T06:10:21.846Z,5892.00
2019-05-17T06:11:21.591Z,6208.00
2019-05-17T06:12:24.706Z,6584.00
2019-05-17T06:13:21.838Z,6924.00
2019-05-17T06:14:21.613Z,7192.00
2019-05-17T06:15:21.950Z,7296.00
2019-05-17T06:16:22.546Z,7336.00
2019-05-17T06:17:21.644Z,7388.00
2019-05-17T06:18:22.499Z,7384.00
2019-05-17T06:19:22.234Z,7452.00
2019-05-17T06:20:22.338Z,7500.00
2019-05-17T06:21:22.450Z,7576.00
2019-05-17T06:22:22.239Z,7664.00
2019-05-17T06:23:20.247Z,7800.00
2019-05-17T06:24:22.409Z,8012.00
2019-05-17T06:25:23.385Z,8344.00
2019-05-17T06:26:23.479Z,8488.00
2019-05-17T06:27:21.501Z,8584.00
2019-05-17T06:28:22.166Z,8792.00
2019-05-17T06:29:22.155Z,8868.00
2019-05-17T06:30:21.997Z,8816.00
2019-05-17T06:31:20.138Z,8672.00
2019-05-17T06:32:22.768Z,8428.00
2019-05-17T06:33:28.099Z,8288.00
2019-05-17T06:34:22.300Z,8372.00
2019-05-17T06:35:21.744Z,8556.00
2019-05-17T06:36:21.716Z,8720.00
2019-05-17T06:37:22.209Z,8612.00
2019-05-17T06:38:22.258Z,8356.00
2019-05-17T06:39:22.269Z,8084.00
2019-05-17T06:40:21.675Z,7844.00
2019-05-17T06:41:21.545Z,7768.00
2019-05-17T06:42:21.667Z,7712.00
2019-05-17T06:43:21.474Z,7756.00
2019-05-17T06:44:21.614Z,7764.00
2019-05-17T06:45:22.075Z,8012.00
2019-05-17T06:46:21.968Z,8372.00
2019-05-17T06:47:22.391Z,8764.00
2019-05-17T06:48:22.317Z,9176.00
2019-05-17T06:49:22.264Z,9656.00
2019-05-17T06:50:19.944Z,10032.00
2019-05-17T06:51:21.959Z,10384.00
2019-05-17T06:52:22.502Z,10840.00
2019-05-17T06:53:21.863Z,11348.00
2019-05-17T06:54:21.615Z,11716.00
2019-05-17T06:55:19.890Z,11836.00
2019-05-17T06:56:19.901Z,11584.00
2019-05-17T06:57:19.863Z,11392.00
2019-05-17T06:58:22.101Z,11156.00
2019-05-17T06:59:19.842Z,10956.00
2019-05-17T07:00:23.784Z,11528.00
2019-05-17T07:01:19.832Z,11700.00
2019-05-17T07:02:19.857Z,12068.00
2019-05-17T07:03:19.943Z,12800.00
2019-05-17T07:04:19.810Z,13788.00
2019-05-17T07:05:20.115Z,14820.00
2019-05-17T07:06:21.487Z,15668.00
2019-05-17T07:07:20.734Z,15696.00
2019-05-17T07:08:20.175Z,14556.00
2019-05-17T07:09:19.747Z,14296.00
2019-05-17T07:10:19.770Z,13888.00
2019-05-17T07:11:21.030Z,14392.00
2019-05-17T07:12:20.337Z,14408.00
2019-05-17T07:13:19.917Z,14700.00
2019-05-17T07:14:20.111Z,14856.00
2019-05-17T07:15:19.888Z,15200.00
2019-05-17T07:16:19.795Z,15300.00
2019-05-17T07:17:19.803Z,14388.00
2019-05-17T07:18:19.636Z,13184.00
2019-05-17T07:19:19.799Z,12004.00
2019-05-17T07:20:19.613Z,12336.00
2019-05-17T07:21:20.568Z,11684.00
2019-05-17T07:22:21.257Z,12312.00
2019-05-17T07:23:19.806Z,12208.00
2019-05-17T07:24:19.732Z,12740.00
2019-05-17T07:25:19.868Z,13040.00
2019-05-17T07:26:19.812Z,11832.00
2019-05-17T07:27:19.534Z,11424.00
2019-05-17T07:28:19.990Z,11336.00
2019-05-17T07:29:19.509Z,12160.00
2019-05-17T07:30:19.644Z,12920.00
2019-05-17T07:31:22.651Z,11788.00
2019-05-17T07:32:19.531Z,10328.00
2019-05-17T07:33:19.943Z,9820.00
2019-05-17T07:34:19.985Z,9520.00
2019-05-17T07:35:19.850Z,9708.00
2019-05-17T07:36:19.752Z,10124.00
2019-05-17T07:37:19.637Z,10672.00
2019-05-17T07:38:19.909Z,10712.00
2019-05-17T07:39:20.477Z,10172.00
2019-05-17T07:40:19.823Z,8852.00
2019-05-17T07:41:20.400Z,8152.00
2019-05-17T07:42:19.610Z,7496.00
2019-05-17T07:43:20.750Z,7264.00
2019-05-17T07:44:20.522Z,6480.00
2019-05-17T07:45:20.319Z,6340.00
2019-05-17T07:46:20.660Z,6692.00
2019-05-17T07:47:20.331Z,6436.00
2019-05-17T07:48:19.958Z,6156.00
2019-05-17T07:49:20.017Z,5784.00
2019-05-17T07:50:20.041Z,5732.00
2019-05-17T07:51:19.581Z,5788.00
2019-05-17T07:52:20.636Z,5608.00
2019-05-17T07:53:20.148Z,5496.00
2019-05-17T07:54:19.736Z,5004.00
2019-05-17T07:55:22.851Z,4884.00
2019-05-17T07:56:20.021Z,4800.00
2019-05-17T07:57:20.710Z,4740.00
2019-05-17T07:58:21.466Z,5756.00
2019-05-17T07:59:20.003Z,5580.00
2019-05-17T08:00:20.141Z,5016.00
2019-05-17T08:01:20.415Z,5688.00
2019-05-17T08:02:19.856Z,6208.00
2019-05-17T08:03:20.969Z,6640.00
2019-05-17T08:04:20.479Z,6260.00
2019-05-17T08:05:21.180Z,6824.00
2019-05-17T08:06:19.855Z,7940.00
2019-05-17T08:07:19.661Z,9016.00
2019-05-17T08:08:20.805Z,8512.00
2019-05-17T08:09:20.471Z,8220.00
2019-05-17T08:10:20.424Z,9252.00
2019-05-17T08:11:19.685Z,10060.00
2019-05-17T08:12:19.976Z,9352.00
2019-05-17T08:13:27.291Z,9484.00
2019-05-17T08:14:29.392Z,11552.00
2019-05-17T08:15:20.011Z,12348.00
2019-05-17T08:16:19.619Z,12620.00
2019-05-17T08:17:19.842Z,12836.00
2019-05-17T08:18:20.401Z,12800.00
2019-05-17T08:19:20.490Z,14588.00
2019-05-17T08:20:20.380Z,15996.00
2019-05-17T08:21:19.851Z,14428.00
2019-05-17T08:22:20.152Z,14172.00
2019-05-17T08:23:20.179Z,16448.00
2019-05-17T08:24:19.651Z,17064.00
2019-05-17T08:25:20.021Z,16628.00
2019-05-17T08:26:20.071Z,16584.00
2019-05-17T08:27:20.092Z,17072.00
2019-05-17T08:28:21.379Z,17080.00
2019-05-17T08:29:20.354Z,16600.00
2019-05-17T08:30:20.613Z,15224.00
2019-05-17T08:31:20.182Z,16040.00
2019-05-17T08:32:20.789Z,15512.00
2019-05-17T08:33:19.493Z,14652.00
2019-05-17T08:34:19.747Z,16024.00
2019-05-17T08:35:19.816Z,15932.00
2019-05-17T08:36:20.108Z,14824.00
2019-05-17T08:37:20.415Z,15196.00
2019-05-17T08:38:19.802Z,14956.00
2019-05-17T08:39:19.832Z,15264.00
2019-05-17T08:40:20.035Z,15764.00
2019-05-17T08:41:20.783Z,14396.00
2019-05-17T08:42:20.475Z,15756.00
2019-05-17T08:43:21.091Z,15268.00
2019-05-17T08:44:19.227Z,14940.00
2019-05-17T08:45:20.584Z,15336.00
2019-05-17T08:46:19.886Z,15656.00
2019-05-17T08:47:20.884Z,15012.00
2019-05-17T08:48:20.662Z,15972.00
2019-05-17T08:49:20.239Z,17856.00
2019-05-17T08:50:20.022Z,17984.00
2019-05-17T08:51:19.668Z,17952.00
2019-05-17T08:52:20.007Z,19360.00
2019-05-17T08:53:19.920Z,19680.00
2019-05-17T08:54:19.579Z,20640.00
2019-05-17T08:55:20.431Z,21792.00
2019-05-17T08:56:20.511Z,22016.00
2019-05-17T08:57:20.488Z,21088.00
2019-05-17T08:58:21.447Z,22656.00
2019-05-17T08:59:20.233Z,24928.00
2019-05-17T09:00:20.745Z,22400.00
2019-05-17T09:01:19.595Z,25408.00
2019-05-17T09:02:19.899Z,29664.00
2019-05-17T09:03:19.563Z,32160.00
2019-05-17T09:04:20.130Z,29792.00
2019-05-17T09:05:21.247Z,31072.00
2019-05-17T09:06:19.912Z,34560.00
2019-05-17T09:07:20.385Z,30176.00
2019-05-17T09:08:20.504Z,29920.00
2019-05-17T09:09:20.435Z,29824.00
2019-05-17T09:10:20.585Z,26944.00
2019-05-17T09:11:19.683Z,27936.00
2019-05-17T09:12:20.470Z,29280.00
2019-05-17T09:13:19.596Z,30272.00
2019-05-17T09:14:18.325Z,30048.00
2019-05-17T09:15:20.394Z,31808.00
2019-05-17T09:16:19.656Z,29632.00
2019-05-17T09:17:19.419Z,30720.00
2019-05-17T09:18:20.422Z,31136.00
2019-05-17T09:19:19.448Z,32864.00
2019-05-17T09:20:20.263Z,32736.00
2019-05-17T09:21:18.271Z,32032.00
2019-05-17T09:22:19.767Z,32736.00
2019-05-17T09:23:19.679Z,34496.00
2019-05-17T09:24:19.494Z,31424.00
2019-05-17T09:25:21.423Z,36704.00
2019-05-17T09:26:20.020Z,35680.00
2019-05-17T09:27:19.750Z,38848.00
2019-05-17T09:28:20.302Z,37216.00
2019-05-17T09:29:20.101Z,43872.00
2019-05-17T09:30:20.308Z,55264.00
2019-05-17T09:31:20.236Z,54624.00
2019-05-17T09:32:20.123Z,57696.00
2019-05-17T09:33:19.214Z,47552.00
2019-05-17T09:34:20.184Z,41344.00
2019-05-17T09:35:20.555Z,52288.00
2019-05-17T09:36:20.306Z,59552.00
2019-05-17T09:37:19.858Z,57280.00
2019-05-17T09:38:20.152Z,53088.00
2019-05-17T09:39:19.974Z,43520.00
2019-05-17T09:40:20.008Z,60160.00
2019-05-17T09:41:20.023Z,55200.00
2019-05-17T09:42:20.752Z,51904.00
2019-05-17T09:43:20.299Z,44256.00
2019-05-17T09:44:20.545Z,33056.00
2019-05-17T09:45:20.223Z,30048.00
2019-05-17T09:46:19.679Z,29664.00
2019-05-17T09:47:20.455Z,27232.00
2019-05-17T09:48:19.638Z,28256.00
2019-05-17T09:49:19.258Z,31424.00
2019-05-17T09:50:19.986Z,31168.00
2019-05-17T09:51:19.639Z,30016.00
2019-05-17T09:52:19.933Z,29184.00
2019-05-17T09:53:20.076Z,31296.00
2019-05-17T09:54:19.465Z,34240.00
2019-05-17T09:55:19.618Z,33952.00
2019-05-17T09:56:17.836Z,31808.00
2019-05-17T09:57:20.273Z,30944.00
2019-05-17T09:58:21.366Z,33536.00
2019-05-17T09:59:17.823Z,31616.00
2019-05-17T10:00:20.619Z,30560.00
2019-05-17T10:01:19.627Z,28192.00
2019-05-17T10:02:20.170Z,26752.00
2019-05-17T10:03:23.308Z,27104.00
2019-05-17T10:04:19.851Z,26816.00
2019-05-17T10:05:19.981Z,27584.00
2019-05-17T10:06:20.005Z,26176.00
2019-05-17T10:07:17.720Z,24800.00
2019-05-17T10:08:17.724Z,21600.00
2019-05-17T10:09:19.570Z,18944.00
2019-05-17T10:10:20.074Z,22400.00
2019-05-17T10:11:20.077Z,23648.00
2019-05-17T10:12:20.100Z,26304.00
2019-05-17T10:13:20.090Z,24608.00
2019-05-17T10:14:25.816Z,22304.00
2019-05-17T10:15:20.731Z,26400.00
2019-05-17T10:16:20.033Z,31456.00
2019-05-17T10:17:17.605Z,32928.00
2019-05-17T10:18:19.565Z,33088.00
2019-05-17T10:19:20.828Z,34240.00
2019-05-17T10:20:19.985Z,33216.00
2019-05-17T10:21:19.719Z,30752.00
2019-05-17T10:22:20.014Z,26752.00
2019-05-17T10:23:19.663Z,24096.00
2019-05-17T10:24:19.921Z,23968.00
2019-05-17T10:25:19.959Z,21504.00
2019-05-17T10:26:19.541Z,20128.00
2019-05-17T10:27:19.666Z,20128.00
2019-05-17T10:28:20.534Z,22336.00
2019-05-17T10:29:17.463Z,25216.00
2019-05-17T10:30:17.455Z,31488.00
2019-05-17T10:31:19.584Z,32992.00
2019-05-17T10:32:20.301Z,35392.00
2019-05-17T10:33:17.435Z,33504.00
2019-05-17T10:34:20.202Z,36160.00
2019-05-17T10:35:17.396Z,34720.00
2019-05-17T10:36:20.013Z,34752.00
2019-05-17T10:37:20.147Z,37856.00
2019-05-17T10:38:19.336Z,38528.00
2019-05-17T10:39:19.318Z,38752.00
2019-05-17T10:40:17.340Z,40736.00
2019-05-17T10:41:19.704Z,38880.00
2019-05-17T10:42:17.321Z,41376.00
2019-05-17T10:43:17.306Z,49344.00
2019-05-17T10:44:17.294Z,50016.00
2019-05-17T10:45:19.698Z,45344.00
2019-05-17T10:46:17.275Z,43040.00
2019-05-17T10:47:19.425Z,42048.00
2019-05-17T10:48:17.265Z,40672.00
2019-05-17T10:49:17.243Z,36224.00
2019-05-17T10:50:17.228Z,34016.00
2019-05-17T10:51:17.356Z,37408.00
2019-05-17T10:52:17.206Z,36064.00
2019-05-17T10:53:17.192Z,32864.00
2019-05-17T10:54:17.181Z,28800.00
2019-05-17T10:55:17.172Z,28640.00
2019-05-17T10:56:19.440Z,35136.00
2019-05-17T10:57:19.314Z,31808.00
2019-05-17T10:58:17.139Z,29632.00
2019-05-17T10:59:17.131Z,28864.00
2019-05-17T11:00:19.569Z,25184.00
2019-05-17T11:01:17.108Z,20704.00
2019-05-17T11:02:19.484Z,16140.00
2019-05-17T11:03:17.106Z,17472.00
2019-05-17T11:04:19.638Z,19680.00
2019-05-17T11:05:17.056Z,20832.00
2019-05-17T11:06:19.610Z,22944.00
2019-05-17T11:07:19.748Z,26720.00
2019-05-17T11:08:19.570Z,28032.00
2019-05-17T11:09:20.168Z,27456.00
2019-05-17T11:10:19.289Z,25600.00
2019-05-17T11:11:19.822Z,23584.00
2019-05-17T11:12:16.979Z,24032.00
2019-05-17T11:13:16.966Z,20320.00
2019-05-17T11:14:16.955Z,16764.00
2019-05-17T11:15:16.974Z,12828.00
2019-05-17T11:16:16.933Z,12176.00
2019-05-17T11:17:16.922Z,11972.00
2019-05-17T11:18:16.911Z,11988.00
2019-05-17T11:19:16.901Z,10744.00
2019-05-17T11:20:16.887Z,11540.00
2019-05-17T11:21:16.893Z,12052.00
2019-05-17T11:22:16.867Z,11888.00
2019-05-17T11:23:16.854Z,11396.00
2019-05-17T11:24:16.860Z,12496.00
2019-05-17T11:25:16.835Z,14988.00
2019-05-17T11:26:16.818Z,18528.00
2019-05-17T11:27:16.827Z,19488.00
2019-05-17T11:28:16.796Z,20864.00
2019-05-17T11:29:16.788Z,24160.00
2019-05-17T11:30:16.775Z,24416.00
2019-05-17T11:31:16.762Z,20672.00
2019-05-17T11:32:16.750Z,17568.00
2019-05-17T11:33:16.754Z,17728.00
2019-05-17T11:34:16.734Z,16372.00
2019-05-17T11:35:16.717Z,16672.00
2019-05-17T11:36:16.728Z,16832.00
2019-05-17T11:37:16.695Z,19680.00
2019-05-17T11:38:16.699Z,21408.00
2019-05-17T11:39:16.695Z,21056.00
2019-05-17T11:40:16.664Z,21568.00
2019-05-17T11:41:21.603Z,21344.00
2019-05-17T11:42:17.642Z,18080.00
2019-05-17T11:43:16.627Z,16800.00
2019-05-17T11:44:16.617Z,20288.00
2019-05-17T11:45:27.417Z,23808.00
2019-05-17T11:46:17.622Z,23680.00
2019-05-17T11:47:16.589Z,20928.00
2019-05-17T11:48:16.600Z,19712.00
2019-05-17T11:49:16.569Z,20896.00
2019-05-17T11:50:16.552Z,19808.00
2019-05-17T11:51:16.559Z,21984.00
2019-05-17T11:52:16.536Z,24032.00
2019-05-17T11:53:16.515Z,23104.00
2019-05-17T11:54:16.502Z,23072.00
2019-05-17T11:55:16.491Z,24608.00
2019-05-17T11:56:16.487Z,23712.00
2019-05-17T11:57:16.497Z,24064.00
2019-05-17T11:58:16.459Z,24288.00
2019-05-17T11:59:16.448Z,23552.00
2019-05-17T12:00:16.441Z,24032.00
2019-05-17T12:01:16.425Z,24192.00
2019-05-17T12:02:16.414Z,21824.00
2019-05-17T12:03:16.423Z,22688.00
2019-05-17T12:04:16.391Z,25280.00
2019-05-17T12:05:16.382Z,23232.00
2019-05-17T12:06:16.367Z,18752.00
2019-05-17T12:07:16.355Z,15040.00
2019-05-17T12:08:16.348Z,15908.00
2019-05-17T12:09:16.354Z,14604.00
2019-05-17T12:10:16.330Z,11100.00
2019-05-17T12:11:16.312Z,10928.00
2019-05-17T12:12:16.301Z,13096.00
2019-05-17T12:13:16.288Z,15244.00
2019-05-17T12:14:16.275Z,17152.00
2019-05-17T12:15:16.287Z,19776.00
2019-05-17T12:16:16.255Z,20128.00
2019-05-17T12:17:16.247Z,20416.00